createdAt,value
2023-04-01T00:00:39.109Z,10.36
2023-04-01T00:01:39.009Z,10.34
2023-04-01T00:02:39.148Z,10.34
2023-04-01T00:03:39.135Z,10.33
2023-04-01T00:04:39.152Z,10.33
2023-04-01T00:05:38.914Z,10.33
2023-04-01T00:06:39.084Z,10.34
2023-04-01T00:07:38.908Z,10.33
2023-04-01T00:08:39.101Z,10.36
2023-04-01T00:09:39.076Z,10.34
2023-04-01T00:10:38.972Z,10.32
2023-04-01T00:11:38.984Z,10.30
2023-04-01T00:12:38.843Z,10.30
2023-04-01T00:13:38.841Z,10.30
2023-04-01T00:14:38.839Z,10.30
2023-04-01T00:15:38.879Z,10.30
2023-04-01T00:16:38.787Z,10.30
2023-04-01T00:17:38.812Z,10.30
2023-04-01T00:18:38.969Z,10.32
2023-04-01T00:19:38.765Z,10.26
2023-04-01T00:20:38.720Z,10.28
2023-04-01T00:21:38.804Z,10.28
2023-04-01T00:22:38.679Z,10.32
2023-04-01T00:23:38.679Z,10.30
2023-04-01T00:24:38.885Z,10.30
2023-04-01T00:25:38.669Z,10.32
2023-04-01T00:26:38.749Z,10.30
2023-04-01T00:27:38.753Z,10.28
2023-04-01T00:28:38.624Z,10.30
2023-04-01T00:29:38.654Z,10.32
2023-04-01T00:30:38.684Z,10.28
2023-04-01T00:31:38.661Z,10.30
2023-04-01T00:32:39.624Z,10.30
2023-04-01T00:33:38.637Z,10.28
2023-04-01T00:34:38.699Z,10.32
2023-04-01T00:35:38.540Z,10.32
2023-04-01T00:36:38.656Z,10.28
2023-04-01T00:37:38.508Z,10.32
2023-04-01T00:38:38.716Z,10.30
2023-04-01T00:39:38.566Z,10.30
2023-04-01T00:40:38.498Z,10.30
2023-04-01T00:41:38.473Z,10.32
2023-04-01T00:42:40.571Z,10.32
2023-04-01T00:43:38.443Z,10.30
2023-04-01T00:44:38.751Z,10.30
2023-04-01T00:45:38.397Z,10.28
2023-04-01T00:46:38.410Z,10.32
2023-04-01T00:47:38.397Z,10.26
2023-04-01T00:48:40.614Z,10.30
2023-04-01T00:49:38.369Z,10.30
2023-04-01T00:50:39.391Z,10.30
2023-04-01T00:51:38.306Z,10.30
2023-04-01T00:52:38.398Z,10.30
2023-04-01T00:53:38.432Z,10.30
2023-04-01T00:54:38.569Z,10.30
2023-04-01T00:55:38.260Z,10.32
2023-04-01T00:56:38.431Z,10.30
2023-04-01T00:57:38.234Z,10.30
2023-04-01T00:58:38.401Z,10.32
2023-04-01T00:59:38.358Z,10.33
2023-04-01T01:00:40.335Z,10.33
2023-04-01T01:01:38.176Z,10.30
2023-04-01T01:02:38.436Z,10.32
2023-04-01T01:03:38.217Z,10.30
2023-04-01T01:04:38.309Z,10.30
2023-04-01T01:05:46.312Z,10.30
2023-04-01T01:06:38.226Z,10.30
2023-04-01T01:07:38.267Z,10.30
2023-04-01T01:08:38.082Z,10.30
2023-04-01T01:09:38.245Z,10.26
2023-04-01T01:10:38.049Z,10.28
2023-04-01T01:11:43.238Z,10.28
2023-04-01T01:12:38.340Z,10.28
2023-04-01T01:13:38.134Z,10.25
2023-04-01T01:14:38.036Z,10.26
2023-04-01T01:15:39.218Z,10.26
2023-04-01T01:16:37.996Z,10.26
2023-04-01T01:17:38.078Z,10.25
2023-04-01T01:18:37.969Z,10.26
2023-04-01T01:19:38.027Z,10.26
2023-04-01T01:20:37.893Z,10.25
2023-04-01T01:21:38.042Z,10.26
2023-04-01T01:22:37.893Z,10.24
2023-04-01T01:23:39.938Z,10.25
2023-04-01T01:24:37.921Z,10.25
2023-04-01T01:25:38.068Z,10.24
2023-04-01T01:26:37.832Z,10.24
2023-04-01T01:27:37.996Z,10.21
2023-04-01T01:28:37.895Z,10.22
2023-04-01T01:29:39.181Z,10.21
2023-04-01T01:30:37.888Z,10.21
2023-04-01T01:31:38.057Z,10.19
2023-04-01T01:32:37.899Z,10.22
2023-04-01T01:33:39.877Z,10.22
2023-04-01T01:34:37.818Z,10.19
2023-04-01T01:35:37.924Z,10.24
2023-04-01T01:36:37.742Z,10.21
2023-04-01T01:37:37.939Z,10.21
2023-04-01T01:38:37.787Z,10.21
2023-04-01T01:39:38.898Z,10.19
2023-04-01T01:40:37.874Z,10.18
2023-04-01T01:41:37.826Z,10.21
2023-04-01T01:42:37.712Z,10.21
2023-04-01T01:43:38.835Z,10.18
2023-04-01T01:44:37.690Z,10.18
2023-04-01T01:45:38.179Z,10.18
2023-04-01T01:46:37.708Z,10.18
2023-04-01T01:47:37.917Z,10.18
2023-04-01T01:48:37.647Z,10.19
2023-04-01T01:49:37.633Z,10.21
2023-04-01T01:50:37.584Z,10.21
2023-04-01T01:51:37.587Z,10.17
2023-04-01T01:52:37.597Z,10.19
2023-04-01T01:53:37.651Z,10.18
2023-04-01T01:54:37.574Z,10.19
2023-04-01T01:55:37.631Z,10.19
2023-04-01T01:56:37.521Z,10.18
2023-04-01T01:57:37.515Z,10.19
2023-04-01T01:58:37.528Z,10.18
2023-04-01T01:59:37.536Z,10.21
2023-04-01T02:00:37.532Z,10.19
2023-04-01T02:01:37.545Z,10.18
2023-04-01T02:02:37.499Z,10.18
2023-04-01T02:03:37.558Z,10.18
2023-04-01T02:04:37.545Z,10.18
2023-04-01T02:05:37.504Z,10.19
2023-04-01T02:06:37.399Z,10.15
2023-04-01T02:07:37.412Z,10.17
2023-04-01T02:08:37.418Z,10.15
2023-04-01T02:09:37.581Z,10.17
2023-04-01T02:10:37.257Z,10.15
2023-04-01T02:11:37.312Z,10.12
2023-04-01T02:12:37.254Z,10.14
2023-04-01T02:13:37.363Z,10.14
2023-04-01T02:14:37.159Z,10.14
2023-04-01T02:15:37.415Z,10.15
2023-04-01T02:16:37.271Z,10.15
2023-04-01T02:17:37.486Z,10.12
2023-04-01T02:18:37.233Z,10.12
2023-04-01T02:19:37.329Z,10.09
2023-04-01T02:20:37.228Z,10.14
2023-04-01T02:21:37.253Z,10.09
2023-04-01T02:22:37.161Z,10.10
2023-04-01T02:23:37.285Z,10.10
2023-04-01T02:24:37.190Z,10.09
2023-04-01T02:25:37.437Z,10.06
2023-04-01T02:26:37.087Z,10.07
2023-04-01T02:27:37.280Z,10.07
2023-04-01T02:28:37.134Z,10.10
2023-04-01T02:29:38.156Z,10.09
2023-04-01T02:30:37.082Z,10.10
2023-04-01T02:31:37.276Z,10.09
2023-04-01T02:32:37.084Z,10.09
2023-04-01T02:33:37.090Z,10.07
2023-04-01T02:34:37.019Z,10.07
2023-04-01T02:35:37.023Z,10.04
2023-04-01T02:36:37.007Z,10.07
2023-04-01T02:37:39.164Z,10.06
2023-04-01T02:38:36.893Z,10.04
2023-04-01T02:39:37.110Z,10.07
2023-04-01T02:40:36.874Z,10.07
2023-04-01T02:41:37.097Z,10.04
2023-04-01T02:42:36.898Z,10.01
2023-04-01T02:43:36.979Z,10.04
2023-04-01T02:44:36.870Z,10.01
2023-04-01T02:45:37.061Z,10.03
2023-04-01T02:46:36.899Z,10.04
2023-04-01T02:47:37.069Z,10.04
2023-04-01T02:48:36.824Z,10.03
2023-04-01T02:49:36.845Z,10.03
2023-04-01T02:50:36.748Z,10.04
2023-04-01T02:51:37.076Z,10.03
2023-04-01T02:52:36.732Z,10.00
2023-04-01T02:53:36.889Z,10.01
2023-04-01T02:54:36.724Z,10.00
2023-04-01T02:55:36.902Z,10.00
2023-04-01T02:56:36.752Z,10.00
2023-04-01T02:57:37.782Z,10.00
2023-04-01T02:58:36.694Z,10.00
2023-04-01T02:59:58.864Z,10.00
2023-04-01T03:00:36.638Z,10.01
2023-04-01T03:01:36.860Z,10.01
2023-04-01T03:02:36.860Z,10.00
2023-04-01T03:03:57.684Z,9.97
2023-04-01T03:04:36.553Z,10.00
2023-04-01T03:05:58.660Z,9.97
2023-04-01T03:06:36.604Z,9.99
2023-04-01T03:07:37.800Z,9.97
2023-04-01T03:08:36.513Z,9.97
2023-04-01T03:09:38.692Z,9.96
2023-04-01T03:10:36.520Z,9.96
2023-04-01T03:11:37.733Z,9.96
2023-04-01T03:12:36.461Z,9.97
2023-04-01T03:13:37.494Z,9.97
2023-04-01T03:14:36.497Z,9.97
2023-04-01T03:17:10.529Z,9.97
2023-04-01T03:18:03.774Z,9.94
2023-04-01T03:19:06.931Z,9.94
2023-04-01T03:20:03.822Z,9.94
2023-04-01T03:21:03.946Z,9.93
2023-04-01T03:22:03.869Z,9.96
2023-04-01T03:23:24.806Z,9.97
2023-04-01T03:24:03.782Z,9.97
2023-04-01T03:25:03.890Z,9.97
2023-04-01T03:26:03.673Z,9.97
2023-04-01T03:27:09.263Z,9.96
2023-04-01T03:28:03.695Z,9.93
2023-04-01T03:29:24.588Z,9.93
2023-04-01T03:30:03.652Z,9.93
2023-04-01T03:35:16.969Z,9.96
2023-04-01T03:36:03.497Z,9.93
2023-04-01T03:37:05.693Z,9.94
2023-04-01T03:38:03.499Z,9.93
2023-04-01T03:39:05.611Z,9.93
2023-04-01T03:40:03.481Z,9.91
2023-04-01T03:46:13.619Z,9.93
2023-04-01T03:47:13.435Z,9.94
2023-04-01T03:48:12.566Z,9.94
2023-04-01T03:49:33.705Z,9.93
2023-04-01T03:50:12.433Z,9.94
2023-04-01T03:52:41.547Z,9.96
2023-04-01T03:53:24.303Z,9.93
2023-04-01T03:59:25.086Z,9.93
2023-04-01T04:00:26.041Z,9.96
2023-04-01T04:01:49.040Z,9.96
2023-04-01T04:02:26.203Z,9.94
2023-04-01T04:03:26.043Z,9.97
2023-04-01T04:05:46.906Z,9.97
2023-04-01T04:06:39.002Z,9.96
2023-04-01T04:07:48.889Z,9.96
2023-04-01T04:08:39.032Z,9.96
2023-04-01T04:10:00.032Z,9.93
2023-04-01T04:10:39.062Z,9.93
2023-04-01T04:11:38.997Z,9.96
2023-04-01T04:12:55.352Z,9.93
2023-04-01T04:13:38.948Z,9.94
2023-04-01T04:14:38.968Z,9.94
2023-04-01T04:15:38.936Z,9.93
2023-04-01T04:16:38.901Z,9.96
2023-04-01T04:17:39.027Z,9.96
2023-04-01T04:18:38.925Z,9.97
2023-04-01T04:19:38.885Z,9.97
2023-04-01T04:20:38.920Z,9.94
2023-04-01T04:21:38.830Z,9.97
2023-04-01T04:22:39.081Z,9.94
2023-04-01T04:23:38.843Z,9.97
2023-04-01T04:24:38.979Z,9.94
2023-04-01T04:25:38.754Z,9.94
2023-04-01T04:26:38.864Z,9.93
2023-04-01T04:27:38.789Z,9.93
2023-04-01T04:28:38.764Z,9.94
2023-04-01T04:29:38.690Z,9.91
2023-04-01T04:30:39.888Z,9.91
2023-04-01T04:31:38.700Z,9.89
2023-04-01T04:32:38.782Z,9.91
2023-04-01T04:33:38.624Z,9.91
2023-04-01T04:34:38.793Z,9.91
2023-04-01T04:35:38.729Z,9.93
2023-04-01T04:36:38.626Z,9.93
2023-04-01T04:37:38.592Z,9.89
2023-04-01T04:38:38.708Z,9.91
2023-04-01T04:39:38.568Z,9.91
2023-04-01T04:40:38.643Z,9.86
2023-04-01T04:41:38.519Z,9.89
2023-04-01T04:42:38.596Z,9.86
2023-04-01T04:43:38.586Z,9.89
2023-04-01T04:44:38.509Z,9.86
2023-04-01T04:45:38.473Z,9.88
2023-04-01T04:46:38.549Z,9.85
2023-04-01T04:47:38.509Z,9.89
2023-04-01T04:48:38.490Z,9.88
2023-04-01T04:49:38.439Z,9.89
2023-04-01T04:50:38.528Z,9.89
2023-04-01T04:51:38.346Z,9.88
2023-04-01T04:52:38.526Z,9.91
2023-04-01T04:53:38.489Z,9.88
2023-04-01T04:54:38.556Z,9.91
2023-04-01T04:55:38.325Z,9.88
2023-04-01T04:56:38.356Z,9.89
2023-04-01T04:57:38.260Z,9.91
2023-04-01T04:58:38.413Z,9.89
2023-04-01T04:59:38.296Z,9.88
2023-04-01T05:00:38.275Z,9.89
2023-04-01T05:01:38.300Z,9.88
2023-04-01T05:02:38.590Z,9.93
2023-04-01T05:03:38.442Z,9.88
2023-04-01T05:04:38.404Z,9.89
2023-04-01T05:05:38.209Z,9.89
2023-04-01T05:06:38.261Z,9.91
2023-04-01T05:07:38.220Z,9.89
2023-04-01T05:08:38.303Z,9.91
2023-04-01T05:09:38.159Z,9.91
2023-04-01T05:10:38.217Z,9.91
2023-04-01T05:11:38.176Z,9.91
2023-04-01T05:12:38.227Z,9.96
2023-04-01T05:13:38.189Z,9.94
2023-04-01T05:14:38.121Z,9.93
2023-04-01T05:15:38.092Z,9.94
2023-04-01T05:16:38.117Z,9.93
2023-04-01T05:17:38.047Z,9.96
2023-04-01T05:18:38.173Z,9.96
2023-04-01T05:19:37.999Z,9.96
2023-04-01T05:20:38.198Z,9.94
2023-04-01T05:21:37.995Z,9.96
2023-04-01T05:22:38.139Z,9.97
2023-04-01T05:23:37.990Z,9.97
2023-04-01T05:24:38.179Z,10.00
2023-04-01T05:25:37.931Z,9.99
2023-04-01T05:26:38.956Z,9.99
2023-04-01T05:27:37.911Z,10.00
2023-04-01T05:28:38.018Z,9.99
2023-04-01T05:29:37.841Z,9.99
2023-04-01T05:30:37.979Z,10.01
2023-04-01T05:31:37.920Z,10.00
2023-04-01T05:32:37.989Z,10.03
2023-04-01T05:33:37.844Z,10.01
2023-04-01T05:34:38.003Z,10.04
2023-04-01T05:35:37.917Z,10.01
2023-04-01T05:36:37.828Z,10.03
2023-04-01T05:37:37.743Z,10.03
2023-04-01T05:38:37.931Z,10.03
2023-04-01T05:39:37.788Z,10.04
2023-04-01T05:40:37.872Z,10.06
2023-04-01T05:41:37.720Z,10.03
2023-04-01T05:42:38.491Z,10.04
2023-04-01T05:43:37.756Z,10.06
2023-04-01T05:44:37.709Z,10.07
2023-04-01T05:45:37.643Z,10.06
2023-04-01T05:46:39.820Z,10.06
2023-04-01T05:47:37.644Z,10.09
2023-04-01T05:49:04.710Z,10.07
2023-04-01T05:49:37.594Z,10.09
2023-04-01T05:50:59.638Z,10.07
2023-04-01T05:51:37.621Z,10.09
2023-04-01T05:53:00.687Z,10.12
2023-04-01T05:53:37.602Z,10.10
2023-04-01T05:54:40.858Z,10.14
2023-04-01T05:55:37.583Z,10.12
2023-04-01T05:57:00.647Z,10.14
2023-04-01T05:57:37.561Z,10.14
2023-04-01T05:58:38.492Z,10.17
2023-04-01T05:59:37.500Z,10.14
2023-04-01T06:00:37.598Z,10.14
2023-04-01T06:01:37.450Z,10.15
2023-04-01T06:02:37.644Z,10.15
2023-04-01T06:03:37.565Z,10.15
2023-04-01T06:04:40.893Z,10.14
2023-04-01T06:05:37.374Z,10.15
2023-04-01T06:06:39.400Z,10.18
2023-04-01T06:07:37.230Z,10.18
2023-04-01T06:08:37.437Z,10.17
2023-04-01T06:09:37.244Z,10.21
2023-04-01T06:10:37.449Z,10.19
2023-04-01T06:11:37.341Z,10.22
2023-04-01T06:12:37.489Z,10.24
2023-04-01T06:13:37.158Z,10.25
2023-04-01T06:14:37.314Z,10.26
2023-04-01T06:15:37.203Z,10.24
2023-04-01T06:16:37.232Z,10.25
2023-04-01T06:17:37.118Z,10.26
2023-04-01T06:18:37.314Z,10.28
2023-04-01T06:19:37.120Z,10.30
2023-04-01T06:20:37.192Z,10.30
2023-04-01T06:21:37.159Z,10.28
2023-04-01T06:22:37.226Z,10.32
2023-04-01T06:23:37.152Z,10.30
2023-04-01T06:24:37.266Z,10.33
2023-04-01T06:25:37.131Z,10.34
2023-04-01T06:26:37.185Z,10.37
2023-04-01T06:27:37.074Z,10.39
2023-04-01T06:28:37.074Z,10.42
2023-04-01T06:29:37.068Z,10.46
2023-04-01T06:30:37.151Z,10.44
2023-04-01T06:31:37.068Z,10.51
2023-04-01T06:32:37.237Z,10.52
2023-04-01T06:33:36.977Z,10.53
2023-04-01T06:34:37.092Z,10.55
2023-04-01T06:35:37.128Z,10.55
2023-04-01T06:36:59.003Z,10.58
2023-04-01T06:37:36.935Z,10.62
2023-04-01T06:38:58.990Z,10.60
2023-04-01T06:39:36.985Z,10.62
2023-04-01T06:40:36.883Z,10.62
2023-04-01T06:41:37.051Z,10.60
2023-04-01T06:42:36.894Z,10.59
2023-04-01T06:43:39.386Z,10.62
2023-04-01T06:44:36.871Z,10.63
2023-04-01T06:45:37.985Z,10.63
2023-04-01T06:46:36.838Z,10.66
2023-04-01T06:48:54.142Z,10.65
2023-04-01T06:49:50.646Z,10.66
2023-04-01T06:52:31.697Z,10.63
2023-04-01T06:53:32.595Z,10.68
2023-04-01T06:54:32.684Z,10.65
2023-04-01T06:55:32.682Z,10.66
2023-04-01T06:56:32.792Z,10.66
2023-04-01T06:57:32.498Z,10.65
2023-04-01T06:58:32.628Z,10.62
2023-04-01T06:59:32.512Z,10.60
2023-04-01T07:00:32.552Z,10.60
2023-04-01T07:01:32.472Z,10.59
2023-04-01T07:02:32.567Z,10.62
2023-04-01T07:03:32.537Z,10.59
2023-04-01T07:04:32.565Z,10.60
2023-04-01T07:05:32.688Z,10.59
2023-04-01T07:06:32.492Z,10.60
2023-04-01T07:07:32.712Z,10.62
2023-04-01T07:08:32.529Z,10.59
2023-04-01T07:09:32.446Z,10.62
2023-04-01T07:10:32.507Z,10.63
2023-04-01T07:11:32.340Z,10.68
2023-04-01T07:12:34.358Z,10.68
2023-04-01T07:13:32.325Z,10.71
2023-04-01T07:14:53.617Z,10.71
2023-04-01T07:15:32.522Z,10.73
2023-04-01T07:16:34.490Z,10.73
2023-04-01T07:17:32.311Z,10.71
2023-04-01T07:18:32.426Z,10.71
2023-04-01T07:19:32.224Z,10.71
2023-04-01T07:20:32.324Z,10.76
2023-04-01T07:21:33.588Z,10.80
2023-04-01T07:22:32.192Z,10.80
2023-04-01T07:23:32.186Z,10.86
2023-04-01T07:24:32.171Z,10.84
2023-04-01T07:25:32.431Z,10.84
2023-04-01T07:26:32.117Z,10.84
2023-04-01T07:27:32.125Z,10.84
2023-04-01T07:28:32.228Z,10.86
2023-04-01T07:29:32.025Z,10.89
2023-04-01T07:30:32.134Z,10.86
2023-04-01T07:31:32.097Z,10.83
2023-04-01T07:32:33.352Z,10.83
2023-04-01T07:33:31.990Z,10.84
2023-04-01T07:34:33.080Z,10.84
2023-04-01T07:35:32.413Z,10.86
2023-04-01T07:36:32.008Z,10.88
2023-04-01T07:37:32.015Z,10.88
2023-04-01T07:38:31.987Z,10.89
2023-04-01T07:39:31.979Z,10.91
2023-04-01T07:40:31.958Z,10.94
2023-04-01T07:41:31.890Z,10.94
2023-04-01T07:42:31.963Z,10.96
2023-04-01T07:43:31.862Z,10.95
2023-04-01T07:44:31.977Z,10.96
2023-04-01T07:45:32.164Z,10.96
2023-04-01T07:46:32.042Z,10.98
2023-04-01T07:47:31.891Z,10.99
2023-04-01T07:48:31.967Z,11.01
2023-04-01T07:49:31.827Z,11.02
2023-04-01T07:50:31.888Z,11.06
2023-04-01T07:51:31.753Z,11.09
2023-04-01T07:52:31.771Z,11.11
2023-04-01T07:53:31.813Z,11.11
2023-04-01T07:54:31.882Z,11.11
2023-04-01T07:55:31.919Z,11.11
2023-04-01T07:56:31.878Z,11.10
2023-04-01T07:57:31.803Z,11.11
2023-04-01T07:58:31.837Z,11.09
2023-04-01T07:59:31.768Z,11.10
2023-04-01T08:00:31.613Z,11.07
2023-04-01T08:01:31.631Z,11.02
2023-04-01T08:02:32.765Z,11.01
2023-04-01T08:03:31.667Z,11.02
2023-04-01T08:04:31.787Z,11.03
2023-04-01T08:05:32.004Z,11.06
2023-04-01T08:06:32.022Z,11.03
2023-04-01T08:07:31.528Z,11.07
2023-04-01T08:08:31.590Z,11.09
2023-04-01T08:09:31.551Z,11.09
2023-04-01T08:10:31.532Z,11.09
2023-04-01T08:11:31.552Z,11.07
2023-04-01T08:12:31.501Z,11.09
2023-04-01T08:13:31.481Z,11.10
2023-04-01T08:14:31.571Z,11.11
2023-04-01T08:15:31.744Z,11.10
2023-04-01T08:16:31.796Z,11.13
2023-04-01T08:17:31.380Z,11.13
2023-04-01T08:18:31.669Z,11.14
2023-04-01T08:19:31.348Z,11.11
2023-04-01T08:20:31.438Z,11.09
2023-04-01T08:21:31.402Z,11.09
2023-04-01T08:22:31.427Z,11.09
2023-04-01T08:23:31.355Z,11.07
2023-04-01T08:24:44.315Z,11.10
2023-04-01T08:25:31.410Z,11.13
2023-04-01T08:26:31.332Z,11.11
2023-04-01T08:27:31.483Z,11.13
2023-04-01T08:28:31.300Z,11.14
2023-04-01T08:29:31.484Z,11.20
2023-04-01T08:30:31.285Z,11.20
2023-04-01T08:31:31.310Z,11.24
2023-04-01T08:32:31.325Z,11.27
2023-04-01T08:37:11.944Z,11.41
2023-04-01T08:38:12.840Z,11.39
2023-04-01T08:39:12.842Z,11.43
2023-04-01T08:40:12.792Z,11.49
2023-04-01T08:41:12.944Z,11.47
2023-04-01T08:42:12.789Z,11.53
2023-04-01T08:43:13.991Z,11.56
2023-04-01T08:44:12.767Z,11.62
2023-04-01T08:45:14.685Z,11.65
2023-04-01T08:46:12.891Z,11.72
2023-04-01T08:47:33.764Z,11.75
2023-04-01T08:48:12.757Z,11.80
2023-04-01T08:49:33.812Z,11.80
2023-04-01T08:50:12.688Z,11.80
2023-04-01T08:51:12.905Z,11.80
2023-04-01T08:52:12.659Z,11.75
2023-04-01T08:53:12.828Z,11.74
2023-04-01T08:54:12.668Z,11.71
2023-04-01T08:56:29.436Z,11.68
2023-04-01T08:57:27.084Z,11.68
2023-04-01T08:58:28.048Z,11.64
2023-04-01T08:59:26.924Z,11.68
2023-04-01T09:00:29.031Z,11.71
2023-04-01T09:01:26.943Z,11.74
2023-04-01T09:02:29.117Z,11.75
2023-04-01T09:03:26.920Z,11.80
2023-04-01T09:04:27.084Z,11.82
2023-04-01T09:05:26.931Z,11.78
2023-04-01T09:06:28.128Z,11.77
2023-04-01T09:07:26.861Z,11.72
2023-04-01T09:08:26.810Z,11.70
2023-04-01T09:09:26.820Z,11.71
2023-04-01T09:10:26.971Z,11.77
2023-04-01T09:11:26.880Z,11.72
2023-04-01T09:12:28.030Z,11.77
2023-04-01T09:13:26.762Z,11.74
2023-04-01T09:14:27.834Z,11.70
2023-04-01T09:15:26.738Z,11.74
2023-04-01T09:16:26.884Z,11.74
2023-04-01T09:17:26.752Z,11.77
2023-04-01T09:18:27.724Z,11.77
2023-04-01T09:19:26.697Z,11.77
2023-04-01T09:20:27.742Z,11.71
2023-04-01T09:21:26.671Z,11.67
2023-04-01T09:22:27.754Z,11.70
2023-04-01T09:23:26.601Z,11.74
2023-04-01T09:28:17.026Z,11.89
2023-04-01T09:29:17.974Z,11.89
2023-04-01T09:30:17.958Z,11.90
2023-04-01T09:31:17.989Z,11.90
2023-04-01T09:32:25.805Z,11.93
2023-04-01T09:33:17.925Z,11.96
2023-04-01T09:34:18.971Z,11.97
2023-04-01T09:35:17.902Z,11.97
2023-04-01T09:36:40.819Z,11.99
2023-04-01T09:37:17.951Z,12.02
2023-04-01T09:38:17.769Z,11.99
2023-04-01T09:39:39.992Z,11.97
2023-04-01T09:40:18.026Z,11.96
2023-04-01T09:41:19.831Z,11.97
2023-04-01T09:42:17.684Z,11.89
2023-04-01T09:43:38.898Z,11.89
2023-04-01T09:44:17.703Z,11.89
2023-04-01T09:45:39.952Z,11.93
2023-04-01T09:46:17.954Z,12.02
2023-04-01T09:47:17.686Z,12.06
2023-04-01T09:48:38.820Z,12.09
2023-04-01T09:49:17.668Z,12.12
2023-04-01T09:50:17.628Z,12.15
2023-04-01T09:51:17.605Z,12.19
2023-04-01T09:52:17.598Z,12.20
2023-04-01T09:53:17.571Z,12.27
2023-04-01T09:54:17.606Z,12.31
2023-04-01T09:55:40.818Z,12.34
2023-04-01T09:56:17.544Z,12.37
2023-04-01T09:57:23.010Z,12.39
2023-04-01T09:58:17.505Z,12.39
2023-04-01T09:59:17.537Z,12.42
2023-04-01T10:00:38.695Z,12.49
2023-04-01T10:01:17.454Z,12.49
2023-04-01T10:02:17.432Z,12.52
2023-04-01T10:03:17.440Z,12.52
2023-04-01T10:04:39.590Z,12.49
2023-04-01T10:05:17.574Z,12.49
2023-04-01T10:06:17.418Z,12.57
2023-04-01T10:07:17.474Z,12.69
2023-04-01T10:08:18.756Z,12.78
2023-04-01T10:09:17.294Z,12.87
2023-04-01T10:10:17.371Z,13.00
2023-04-01T10:11:17.420Z,13.03
2023-04-01T10:12:17.476Z,13.15
2023-04-01T10:13:17.282Z,13.21
2023-04-01T10:14:17.396Z,13.24
2023-04-01T10:15:17.331Z,13.27
2023-04-01T10:16:17.312Z,13.27
2023-04-01T10:17:17.334Z,13.27
2023-04-01T10:18:17.247Z,13.37
2023-04-01T10:19:17.802Z,13.36
2023-04-01T10:20:17.329Z,13.38
2023-04-01T10:21:17.269Z,13.43
2023-04-01T10:22:17.256Z,13.55
2023-04-01T10:23:17.222Z,13.65
2023-04-01T10:24:17.218Z,13.71
2023-04-01T10:25:17.126Z,13.76
2023-04-01T10:26:17.169Z,13.76
2023-04-01T10:27:17.195Z,13.84
2023-04-01T10:28:17.131Z,13.87
2023-04-01T10:29:17.138Z,13.84
2023-04-01T10:30:17.142Z,13.80
2023-04-01T10:31:17.114Z,13.74
2023-04-01T10:32:17.238Z,13.69
2023-04-01T10:33:17.193Z,13.69
2023-04-01T10:34:17.006Z,13.63
2023-04-01T10:35:17.039Z,13.59
2023-04-01T10:36:17.038Z,13.55
2023-04-01T10:37:17.026Z,13.55
2023-04-01T10:38:17.025Z,13.54
2023-04-01T10:39:17.017Z,13.41
2023-04-01T10:40:16.999Z,13.44
2023-04-01T10:41:16.921Z,13.49
2023-04-01T10:42:16.976Z,13.52
2023-04-01T10:43:16.891Z,13.56
2023-04-01T10:44:16.948Z,13.59
2023-04-01T10:45:17.015Z,13.59
2023-04-01T10:46:17.121Z,13.63
2023-04-01T10:47:16.848Z,13.62
2023-04-01T10:48:16.978Z,13.69
2023-04-01T10:49:16.756Z,13.65
2023-04-01T10:50:16.869Z,13.63
2023-04-01T10:51:16.907Z,13.55
2023-04-01T10:52:16.856Z,13.46
2023-04-01T10:53:16.961Z,13.41
2023-04-01T10:54:16.824Z,13.37
2023-04-01T10:55:16.921Z,13.27
2023-04-01T10:56:16.815Z,13.20
2023-04-01T10:57:16.965Z,13.12
2023-04-01T10:58:16.719Z,13.09
2023-04-01T10:59:18.267Z,13.11
2023-04-01T11:00:16.659Z,13.11
2023-04-01T11:01:16.755Z,13.15
2023-04-01T11:02:16.834Z,13.21
2023-04-01T11:03:17.778Z,13.36
2023-04-01T11:04:16.642Z,13.52
2023-04-01T11:05:20.195Z,13.67
2023-04-01T11:06:16.620Z,13.77
2023-04-01T11:07:16.767Z,13.87
2023-04-01T11:08:16.545Z,13.91
2023-04-01T11:09:16.686Z,13.89
2023-04-01T11:10:16.522Z,13.83
2023-04-01T11:11:16.667Z,13.74
2023-04-01T11:12:16.511Z,13.62
2023-04-01T11:13:16.532Z,13.47
2023-04-01T11:14:16.546Z,13.33
2023-04-01T11:15:16.572Z,13.22
2023-04-01T11:16:18.432Z,13.14
2023-04-01T11:17:16.520Z,13.17
2023-04-01T11:18:16.702Z,13.15
2023-04-01T11:19:16.511Z,13.22
2023-04-01T11:20:16.458Z,13.36
2023-04-01T11:21:16.459Z,13.47
2023-04-01T11:22:16.378Z,13.63
2023-04-01T11:23:16.883Z,13.80
2023-04-01T11:24:16.420Z,13.87
2023-04-01T11:25:16.272Z,13.98
2023-04-01T11:26:16.461Z,14.19
2023-04-01T11:27:16.308Z,14.29
2023-04-01T11:28:16.532Z,14.42
2023-04-01T11:29:16.314Z,14.50
2023-04-01T11:30:16.357Z,14.64
2023-04-01T11:31:16.242Z,14.74
2023-04-01T11:32:16.332Z,14.86
2023-04-01T11:33:16.698Z,14.94
2023-04-01T11:34:16.494Z,15.03
2023-04-01T11:35:16.259Z,15.09
2023-04-01T11:36:16.421Z,15.06
2023-04-01T11:37:16.165Z,14.99
2023-04-01T11:38:16.396Z,14.90
2023-04-01T11:39:16.154Z,14.78
2023-04-01T11:40:16.193Z,14.68
2023-04-01T11:41:16.097Z,14.62
2023-04-01T11:42:16.283Z,14.54
2023-04-01T11:43:26.307Z,14.49
2023-04-01T11:44:16.111Z,14.43
2023-04-01T11:45:16.130Z,14.35
2023-04-01T11:46:16.250Z,14.27
2023-04-01T11:47:16.321Z,14.17
2023-04-01T11:48:15.992Z,14.10
2023-04-01T11:49:16.126Z,13.99
2023-04-01T11:50:16.077Z,13.83
2023-04-01T11:51:16.173Z,13.56
2023-04-01T11:52:16.037Z,13.38
2023-04-01T11:53:16.178Z,13.30
2023-04-01T11:54:16.086Z,13.20
2023-04-01T11:55:16.103Z,13.15
2023-04-01T11:56:15.965Z,13.12
2023-04-01T11:57:16.204Z,13.07
2023-04-01T11:58:16.029Z,13.00
2023-04-01T11:59:16.071Z,12.97
2023-04-01T12:00:15.874Z,12.95
2023-04-01T12:01:16.013Z,12.93
2023-04-01T12:02:15.849Z,12.87
2023-04-01T12:03:16.115Z,12.85
2023-04-01T12:04:16.021Z,12.85
2023-04-01T12:05:16.055Z,12.79
2023-04-01T12:06:15.806Z,12.79
2023-04-01T12:07:16.028Z,12.81
2023-04-01T12:08:15.859Z,12.79
2023-04-01T12:09:15.949Z,12.82
2023-04-01T12:10:15.856Z,12.82
2023-04-01T12:11:15.910Z,12.84
2023-04-01T12:12:15.848Z,12.82
2023-04-01T12:13:16.846Z,12.82
2023-04-01T12:14:15.745Z,12.85
2023-04-01T12:15:16.088Z,12.88
2023-04-01T12:16:15.645Z,12.95
2023-04-01T12:17:15.882Z,13.00
2023-04-01T12:18:15.661Z,13.06
2023-04-01T12:19:16.075Z,13.11
2023-04-01T12:20:15.554Z,13.20
2023-04-01T12:21:16.714Z,13.27
2023-04-01T12:22:15.577Z,13.36
2023-04-01T12:23:15.571Z,13.43
2023-04-01T12:24:15.620Z,13.52
2023-04-01T12:25:18.876Z,13.58
2023-04-01T12:26:15.493Z,13.59
2023-04-01T12:27:36.596Z,13.61
2023-04-01T12:28:15.522Z,13.58
2023-04-01T12:29:15.478Z,13.62
2023-04-01T12:30:15.584Z,13.63
2023-04-01T12:31:15.814Z,13.70
2023-04-01T12:32:16.691Z,13.74
2023-04-01T12:33:15.401Z,13.81
2023-04-01T12:34:15.585Z,13.87
2023-04-01T12:35:15.353Z,13.92
2023-04-01T12:36:15.640Z,13.92
2023-04-01T12:37:15.316Z,13.96
2023-04-01T12:38:15.588Z,14.02
2023-04-01T12:39:15.276Z,13.98
2023-04-01T12:40:15.422Z,13.99
2023-04-01T12:41:15.259Z,14.02
2023-04-01T12:42:15.426Z,14.02
2023-04-01T12:43:15.299Z,14.01
2023-04-01T12:44:15.438Z,13.98
2023-04-01T12:45:15.217Z,13.96
2023-04-01T12:46:16.569Z,13.96
2023-04-01T12:47:15.177Z,13.98
2023-04-01T12:48:16.470Z,14.04
2023-04-01T12:49:15.154Z,14.01
2023-04-01T12:50:15.352Z,13.98
2023-04-01T12:51:15.128Z,13.91
2023-04-01T12:52:16.235Z,13.91
2023-04-01T12:53:15.141Z,13.95
2023-04-01T12:54:16.268Z,14.01
2023-04-01T12:55:15.109Z,13.92
2023-04-01T12:56:17.325Z,13.87
2023-04-01T12:57:15.096Z,13.71
2023-04-01T12:58:15.303Z,13.59
2023-04-01T12:59:15.036Z,13.46
2023-04-01T13:00:16.371Z,13.33
2023-04-01T13:01:15.030Z,13.20
2023-04-01T13:02:15.057Z,13.07
2023-04-01T13:03:14.997Z,12.97
2023-04-01T13:04:16.119Z,12.92
2023-04-01T13:05:14.955Z,12.88
2023-04-01T13:06:14.990Z,12.87
2023-04-01T13:07:14.966Z,12.89
2023-04-01T13:08:17.226Z,12.88
2023-04-01T13:09:14.882Z,12.89
2023-04-01T13:10:29.355Z,12.92
2023-04-01T13:11:14.845Z,12.92
2023-04-01T13:12:15.974Z,12.92
2023-04-01T13:13:14.829Z,12.95
2023-04-01T13:14:25.039Z,12.93
2023-04-01T13:15:14.849Z,12.95
2023-04-01T13:16:17.170Z,12.97
2023-04-01T13:17:14.755Z,12.95
2023-04-01T13:18:17.019Z,13.00
2023-04-01T13:19:14.796Z,13.04
2023-04-01T13:20:15.806Z,13.07
2023-04-01T13:21:14.768Z,13.18
2023-04-01T13:22:15.790Z,13.20
2023-04-01T13:23:14.694Z,13.22
2023-04-01T13:24:15.941Z,13.27
2023-04-01T13:25:14.662Z,13.27
2023-04-01T13:26:15.405Z,13.21